createdAt,value
2022-08-17T00:02:26.651Z,33.35
2022-08-17T00:04:55.206Z,35.38
2022-08-17T00:07:22.456Z,33.58
2022-08-17T00:09:49.256Z,35.92
2022-08-17T00:12:42.681Z,36.88
2022-08-17T00:15:05.900Z,33.78
2022-08-17T00:20:04.686Z,33.50
2022-08-17T00:22:36.125Z,33.15
2022-08-17T00:25:12.152Z,33.08
2022-08-17T00:27:39.555Z,32.80
2022-08-17T00:30:09.074Z,31.73
2022-08-17T00:33:14.211Z,31.85
2022-08-17T00:35:34.717Z,29.75
2022-08-17T00:38:01.975Z,29.27
2022-08-17T00:40:44.475Z,29.63
2022-08-17T00:43:26.048Z,29.48
2022-08-17T00:45:52.823Z,29.77
2022-08-17T00:48:27.181Z,32.45
2022-08-17T00:51:04.852Z,33.25
2022-08-17T00:53:33.822Z,34.08
2022-08-17T00:56:03.347Z,32.70
2022-08-17T00:58:36.498Z,33.22
2022-08-17T01:01:04.554Z,33.10
2022-08-17T01:03:31.567Z,31.45
2022-08-17T01:06:00.669Z,29.83
2022-08-17T01:08:30.977Z,29.63
2022-08-17T01:11:02.202Z,30.90
2022-08-17T01:13:41.289Z,31.42
2022-08-17T01:16:17.628Z,29.88
2022-08-17T01:18:48.422Z,30.52
2022-08-17T01:21:47.996Z,29.88
2022-08-17T01:24:15.460Z,31.23
2022-08-17T01:26:43.322Z,31.58
2022-08-17T01:29:11.831Z,31.63
2022-08-17T01:31:44.355Z,31.17
2022-08-17T01:34:13.221Z,32.35
2022-08-17T01:36:43.216Z,32.78
2022-08-17T01:39:17.871Z,32.10
2022-08-17T01:41:46.470Z,31.30
2022-08-17T01:44:16.477Z,32.45
2022-08-17T01:46:43.636Z,33.00
2022-08-17T01:49:12.152Z,32.80
2022-08-17T01:51:39.540Z,33.72
2022-08-17T01:54:13.482Z,35.90
2022-08-17T01:56:42.659Z,37.35
2022-08-17T01:59:09.928Z,37.22
2022-08-17T02:01:37.348Z,35.47
2022-08-17T02:04:06.826Z,36.05
2022-08-17T02:06:47.051Z,34.03
2022-08-17T02:09:25.484Z,33.67
2022-08-17T02:11:55.011Z,34.47
2022-08-17T02:14:24.517Z,34.20
2022-08-17T02:16:52.089Z,32.70
2022-08-17T02:19:18.942Z,32.78
2022-08-17T02:21:48.691Z,33.05
2022-08-17T02:24:58.864Z,31.27
2022-08-17T02:27:07.152Z,25.10
2022-08-17T02:29:33.814Z,30.83
2022-08-17T02:32:01.762Z,27.35
2022-08-17T02:34:28.951Z,28.80
2022-08-17T02:36:55.874Z,30.48
2022-08-17T02:39:22.560Z,30.45
2022-08-17T02:41:49.234Z,29.83
2022-08-17T02:44:39.418Z,29.42
2022-08-17T02:47:02.595Z,29.75
2022-08-17T02:49:29.191Z,28.42
2022-08-17T02:51:58.015Z,29.30
2022-08-17T02:54:39.931Z,29.33
2022-08-17T02:57:10.189Z,28.88
2022-08-17T02:59:38.023Z,28.52
2022-08-17T03:02:07.068Z,27.95
2022-08-17T03:04:35.170Z,27.48
2022-08-17T03:07:03.355Z,26.52
2022-08-17T03:09:30.206Z,25.45
2022-08-17T03:12:08.971Z,27.42
2022-08-17T03:14:41.666Z,26.23
2022-08-17T03:17:09.968Z,25.08
2022-08-17T03:19:37.357Z,24.88
2022-08-17T03:22:36.471Z,25.13
2022-08-17T03:24:56.447Z,24.90
2022-08-17T03:27:23.460Z,25.90
2022-08-17T03:29:50.129Z,24.85
2022-08-17T03:32:17.031Z,24.23
2022-08-17T03:34:43.676Z,24.50
2022-08-17T03:37:10.342Z,23.73
2022-08-17T03:39:37.060Z,23.88
2022-08-17T03:42:31.432Z,23.55
2022-08-17T03:45:00.104Z,24.25
2022-08-17T03:47:45.615Z,23.15
2022-08-17T03:50:32.482Z,22.70
2022-08-17T03:53:17.787Z,22.08
2022-08-17T03:56:03.163Z,22.33
2022-08-17T03:58:30.040Z,21.02
2022-08-17T04:00:57.051Z,21.98
2022-08-17T04:03:24.831Z,22.02
2022-08-17T04:05:51.453Z,20.08
2022-08-17T04:08:18.056Z,18.98
2022-08-17T04:10:45.433Z,18.30
2022-08-17T04:13:12.415Z,18.00
2022-08-17T04:15:39.143Z,18.40
2022-08-17T04:18:07.491Z,17.38
2022-08-17T04:20:34.481Z,18.15
2022-08-17T04:23:09.414Z,17.98
2022-08-17T04:25:39.813Z,18.27
2022-08-17T04:28:07.715Z,17.48
2022-08-17T04:30:45.088Z,18.75
2022-08-17T04:33:13.993Z,17.88
2022-08-17T04:35:49.998Z,18.58
2022-08-17T04:38:24.250Z,18.30
2022-08-17T04:41:10.334Z,18.90
2022-08-17T04:43:38.912Z,20.92
2022-08-17T04:46:09.044Z,20.75
2022-08-17T04:48:38.436Z,21.80
2022-08-17T04:51:17.690Z,23.20
2022-08-17T04:53:49.072Z,24.63
2022-08-17T04:56:22.545Z,25.58
2022-08-17T04:58:51.492Z,25.00
2022-08-17T05:01:24.137Z,25.73
2022-08-17T05:03:52.678Z,28.17
2022-08-17T05:06:19.586Z,27.50
2022-08-17T05:08:46.383Z,28.02
2022-08-17T05:11:14.788Z,28.95
2022-08-17T05:13:41.696Z,29.02
2022-08-17T05:16:09.103Z,27.17
2022-08-17T05:18:37.182Z,27.88
2022-08-17T05:21:04.183Z,27.33
2022-08-17T05:23:42.254Z,25.42
2022-08-17T05:26:19.874Z,24.38
2022-08-17T05:28:54.938Z,23.38
2022-08-17T05:31:24.106Z,22.50
2022-08-17T05:33:50.839Z,22.83
2022-08-17T05:36:41.657Z,20.17
2022-08-17T05:39:04.356Z,19.63
2022-08-17T05:41:30.973Z,19.05
2022-08-17T05:43:57.640Z,18.60
2022-08-17T05:46:32.251Z,17.92
2022-08-17T05:49:05.606Z,16.75
2022-08-17T05:51:53.398Z,16.58
2022-08-17T05:55:01.219Z,13.50
2022-08-17T05:58:04.332Z,14.77
2022-08-17T06:00:50.659Z,14.02
2022-08-17T06:03:39.311Z,13.23
2022-08-17T06:06:38.401Z,12.60
2022-08-17T06:09:26.527Z,11.80
2022-08-17T06:12:09.835Z,11.27
2022-08-17T06:15:07.365Z,10.43
2022-08-17T06:17:35.017Z,9.93
2022-08-17T06:20:10.221Z,9.93
2022-08-17T06:22:47.636Z,9.48
2022-08-17T06:25:34.737Z,10.30
2022-08-17T06:28:27.387Z,10.50
2022-08-17T06:31:00.850Z,10.15
2022-08-17T06:33:35.366Z,9.98
2022-08-17T06:36:09.629Z,10.27
2022-08-17T06:39:00.087Z,9.13
2022-08-17T06:41:52.048Z,9.50
2022-08-17T06:44:44.749Z,9.32
2022-08-17T06:47:31.379Z,9.80
2022-08-17T06:50:27.940Z,11.18
2022-08-17T06:53:03.985Z,10.88
2022-08-17T06:55:49.200Z,11.07
2022-08-17T06:58:22.221Z,11.80
2022-08-17T07:00:56.653Z,11.57
2022-08-17T07:03:54.734Z,11.35
2022-08-17T07:06:26.461Z,12.02
2022-08-17T07:09:23.182Z,12.20
2022-08-17T07:11:58.346Z,13.32
2022-08-17T07:14:31.707Z,14.50
2022-08-17T07:17:02.882Z,13.82
2022-08-17T07:19:32.885Z,15.60
2022-08-17T07:22:21.055Z,15.05
2022-08-17T07:24:59.854Z,15.70
2022-08-17T07:27:42.839Z,16.58
2022-08-17T07:30:19.410Z,15.75
2022-08-17T07:33:03.160Z,16.02
2022-08-17T07:35:37.712Z,15.18
2022-08-17T07:38:25.664Z,16.85
2022-08-17T07:41:05.963Z,16.42
2022-08-17T07:43:41.481Z,18.08
2022-08-17T07:46:29.862Z,17.27
2022-08-17T07:49:03.378Z,18.25
2022-08-17T07:51:57.995Z,18.73
2022-08-17T07:54:32.670Z,19.60
2022-08-17T07:57:29.876Z,18.52
2022-08-17T08:00:00.008Z,18.40
2022-08-17T08:02:43.181Z,19.42
2022-08-17T08:05:29.967Z,19.35
2022-08-17T08:08:24.277Z,18.05
2022-08-17T08:11:02.558Z,17.88
2022-08-17T08:13:32.182Z,19.15
2022-08-17T08:16:17.305Z,18.83
2022-08-17T08:18:55.662Z,19.02
2022-08-17T08:21:51.174Z,19.45
2022-08-17T08:24:45.414Z,18.10
2022-08-17T08:27:42.880Z,19.33
2022-08-17T08:30:14.758Z,18.55
2022-08-17T08:35:34.939Z,19.45
2022-08-17T08:38:34.581Z,19.60
2022-08-17T08:41:16.417Z,16.45
2022-08-17T08:44:05.929Z,14.38
2022-08-17T08:46:42.362Z,14.05
2022-08-17T08:50:03.285Z,14.95
2022-08-17T08:52:58.999Z,10.98
2022-08-17T08:55:49.172Z,11.05
2022-08-17T08:58:31.707Z,11.07
2022-08-17T09:01:18.263Z,10.98
2022-08-17T09:04:24.691Z,11.20
2022-08-17T09:07:34.823Z,10.90
2022-08-17T09:10:25.605Z,10.25
2022-08-17T09:12:57.578Z,9.95
2022-08-17T09:15:33.711Z,10.57
2022-08-17T09:19:00.665Z,9.95
2022-08-17T09:20:58.786Z,9.98
2022-08-17T09:23:45.215Z,11.05
2022-08-17T09:26:26.196Z,11.00
2022-08-17T09:29:01.360Z,12.10
2022-08-17T09:31:48.205Z,13.32
2022-08-17T09:34:22.128Z,13.80
2022-08-17T09:37:29.429Z,14.13
2022-08-17T09:40:21.379Z,14.57
2022-08-17T09:42:52.750Z,14.07
2022-08-17T09:45:31.226Z,13.13
2022-08-17T09:48:18.277Z,13.48
2022-08-17T09:51:08.384Z,13.43
2022-08-17T09:53:39.532Z,15.38
2022-08-17T09:56:33.861Z,14.98
2022-08-17T09:59:05.640Z,13.98
2022-08-17T10:01:52.256Z,14.63
2022-08-17T10:04:47.724Z,14.80
2022-08-17T10:07:30.946Z,15.32
2022-08-17T10:10:14.287Z,14.93
2022-08-17T10:12:54.225Z,15.73
2022-08-17T10:15:25.302Z,14.85
2022-08-17T10:18:08.672Z,16.40
2022-08-17T10:20:44.296Z,16.13
2022-08-17T10:23:42.336Z,15.38
2022-08-17T10:26:13.253Z,14.75
2022-08-17T10:28:50.102Z,15.57
2022-08-17T10:31:35.716Z,14.68
2022-08-17T10:34:24.572Z,14.85
2022-08-17T10:37:19.548Z,15.38
2022-08-17T10:39:57.460Z,15.25
2022-08-17T10:42:48.888Z,14.02
2022-08-17T10:45:29.455Z,14.18
2022-08-17T10:48:05.341Z,13.65
2022-08-17T10:50:51.393Z,14.27
2022-08-17T10:53:33.250Z,14.00
2022-08-17T10:56:11.813Z,13.88
2022-08-17T10:58:53.927Z,15.65
2022-08-17T11:01:32.709Z,15.02
2022-08-17T11:04:17.567Z,14.70
2022-08-17T11:07:20.125Z,14.00
2022-08-17T11:10:07.792Z,14.55
2022-08-17T11:13:01.068Z,14.95
2022-08-17T11:15:38.470Z,16.42
2022-08-17T11:18:36.573Z,17.15
2022-08-17T11:21:21.924Z,17.27
2022-08-17T11:24:07.557Z,17.23
2022-08-17T11:26:38.336Z,18.17
2022-08-17T11:29:16.447Z,17.80
2022-08-17T11:31:58.536Z,18.60
2022-08-17T11:34:28.919Z,18.00
2022-08-17T11:37:40.109Z,18.88
2022-08-17T11:40:15.002Z,18.13
2022-08-17T11:43:13.407Z,17.88
2022-08-17T11:45:45.810Z,17.98
2022-08-17T11:49:08.552Z,18.00
2022-08-17T11:52:01.125Z,17.90
2022-08-17T11:57:26.559Z,16.80
2022-08-17T12:00:10.305Z,19.75
2022-08-17T12:02:47.343Z,19.52
2022-08-17T12:05:17.724Z,19.65
2022-08-17T12:07:58.403Z,20.70
2022-08-17T12:10:31.867Z,20.85
2022-08-17T12:13:04.055Z,21.17
2022-08-17T12:15:36.103Z,21.60
2022-08-17T12:18:02.999Z,23.17
2022-08-17T12:20:40.732Z,22.48
2022-08-17T12:23:16.276Z,23.65
2022-08-17T12:25:59.334Z,25.30
2022-08-17T12:28:32.351Z,25.30
2022-08-17T12:31:02.330Z,25.60
2022-08-17T12:33:29.437Z,26.38
2022-08-17T12:36:06.587Z,26.48
2022-08-17T12:38:36.574Z,26.67
2022-08-17T12:41:26.017Z,27.10
2022-08-17T12:44:05.614Z,27.45
2022-08-17T12:46:44.730Z,27.63
2022-08-17T12:49:26.442Z,28.08
2022-08-17T12:52:06.843Z,27.50
2022-08-17T12:54:40.976Z,28.02
2022-08-17T12:57:33.629Z,28.50
2022-08-17T13:00:15.860Z,28.13
2022-08-17T13:02:58.008Z,29.25
2022-08-17T13:05:29.629Z,30.25
2022-08-17T13:07:59.212Z,28.92
2022-08-17T13:10:33.453Z,30.15
2022-08-17T13:13:05.970Z,30.65
2022-08-17T13:15:43.365Z,29.17
2022-08-17T13:18:36.170Z,29.92
2022-08-17T13:21:02.902Z,28.67
2022-08-17T13:23:32.275Z,29.77
2022-08-17T13:26:05.977Z,31.17
2022-08-17T13:28:35.997Z,31.73
2022-08-17T13:31:24.113Z,30.60
2022-08-17T13:33:50.931Z,31.17
2022-08-17T13:36:30.093Z,30.60
2022-08-17T13:39:12.285Z,33.83
2022-08-17T13:41:39.437Z,31.52
2022-08-17T13:44:40.291Z,33.20
2022-08-17T13:47:17.949Z,32.92
2022-08-17T13:49:48.965Z,33.25
2022-08-17T13:52:33.943Z,33.25
2022-08-17T13:55:17.415Z,32.33
2022-08-17T13:57:49.487Z,34.35
2022-08-17T14:00:33.354Z,34.80
2022-08-17T14:03:02.228Z,34.80
2022-08-17T14:05:30.486Z,34.15
2022-08-17T14:08:07.015Z,33.88
2022-08-17T14:10:36.368Z,33.42
2022-08-17T14:13:03.376Z,34.65
2022-08-17T14:15:54.521Z,35.45
2022-08-17T14:18:18.885Z,34.50
2022-08-17T14:21:05.637Z,35.13
2022-08-17T14:23:32.831Z,36.15
2022-08-17T14:25:59.784Z,35.60
2022-08-17T14:28:26.527Z,34.97
2022-08-17T14:30:55.415Z,34.08
2022-08-17T14:33:24.656Z,34.88
2022-08-17T14:35:53.495Z,32.85
2022-08-17T14:38:20.690Z,33.50
2022-08-17T14:40:48.236Z,32.65
2022-08-17T14:43:15.775Z,33.65
2022-08-17T14:45:43.304Z,31.80
2022-08-17T14:48:10.523Z,30.60
2022-08-17T14:50:41.159Z,29.52
2022-08-17T14:53:10.940Z,28.92
2022-08-17T14:55:40.391Z,30.00
2022-08-17T14:58:08.664Z,29.58
2022-08-17T15:00:35.498Z,29.95
2022-08-17T15:03:02.716Z,28.05
2022-08-17T15:05:33.398Z,27.85
2022-08-17T15:08:01.273Z,26.70
2022-08-17T15:10:29.438Z,27.15
2022-08-17T15:12:56.475Z,27.02
2022-08-17T15:15:23.948Z,26.30
2022-08-17T15:17:51.456Z,26.58
2022-08-17T15:20:21.453Z,26.70
2022-08-17T15:22:50.033Z,26.30
2022-08-17T15:25:19.131Z,25.88
2022-08-17T15:27:46.154Z,26.60
2022-08-17T15:30:13.352Z,27.50
2022-08-17T15:32:45.782Z,27.02
2022-08-17T15:35:19.628Z,26.63
2022-08-17T15:37:54.295Z,27.00
2022-08-17T15:40:20.930Z,29.15
2022-08-17T15:42:47.530Z,26.60
2022-08-17T15:45:16.862Z,27.42
2022-08-17T15:47:43.531Z,26.40
2022-08-17T15:50:10.645Z,26.95
2022-08-17T15:52:40.216Z,26.88
2022-08-17T15:55:11.048Z,27.75
2022-08-17T15:57:38.016Z,26.67
2022-08-17T16:00:07.451Z,27.05
2022-08-17T16:03:45.668Z,28.08
2022-08-17T16:05:24.996Z,26.15
2022-08-17T16:07:52.925Z,25.85
2022-08-17T16:10:20.934Z,26.73
2022-08-17T16:12:49.801Z,27.08
2022-08-17T16:15:18.300Z,26.20
2022-08-17T16:17:45.129Z,26.13
2022-08-17T16:20:20.134Z,26.40
2022-08-17T16:22:49.283Z,26.25
2022-08-17T16:25:21.367Z,24.90
2022-08-17T16:30:17.558Z,24.10
2022-08-17T16:32:45.016Z,23.92
2022-08-17T16:35:17.195Z,24.55
2022-08-17T16:37:45.475Z,23.90
2022-08-17T16:40:14.326Z,22.55
2022-08-17T16:42:43.132Z,22.85
2022-08-17T16:45:13.375Z,22.05
2022-08-17T16:47:41.732Z,22.50
2022-08-17T16:50:11.841Z,20.65
2022-08-17T16:52:39.275Z,21.33
2022-08-17T16:55:09.354Z,20.83
2022-08-17T16:57:47.276Z,22.48
2022-08-17T17:00:17.824Z,22.05
2022-08-17T17:02:47.411Z,22.00
2022-08-17T17:05:37.408Z,22.15
2022-08-17T17:08:08.960Z,21.95
2022-08-17T17:10:43.824Z,22.20
2022-08-17T17:13:25.832Z,21.95
2022-08-17T17:18:39.080Z,22.95
2022-08-17T17:21:09.092Z,23.95
2022-08-17T17:23:38.475Z,23.80
2022-08-17T17:26:43.077Z,23.33
2022-08-17T17:29:18.769Z,24.02
2022-08-17T17:32:17.299Z,24.20
2022-08-17T17:34:50.899Z,23.20
2022-08-17T17:37:24.648Z,24.38
2022-08-17T17:39:59.874Z,24.52
2022-08-17T17:42:31.308Z,24.67
2022-08-17T17:45:08.141Z,25.80
2022-08-17T17:47:37.368Z,25.70
2022-08-17T17:50:06.498Z,25.67
2022-08-17T17:52:59.352Z,32.25
2022-08-17T17:55:40.939Z,26.48
2022-08-17T17:58:26.213Z,27.83
2022-08-17T18:01:11.937Z,26.05
2022-08-17T18:04:05.019Z,26.63
2022-08-17T18:06:59.244Z,26.63
2022-08-17T18:09:51.667Z,25.42
2022-08-17T18:13:05.332Z,26.08
2022-08-17T18:15:51.302Z,26.17
2022-08-17T18:18:18.040Z,27.40
2022-08-17T18:20:54.096Z,27.27
2022-08-17T18:23:28.031Z,26.92
2022-08-17T18:25:56.568Z,28.27
2022-08-17T18:28:43.101Z,26.83
2022-08-17T18:31:21.393Z,27.40
2022-08-17T18:33:52.473Z,24.38
2022-08-17T18:36:34.044Z,26.40
2022-08-17T18:39:39.737Z,27.10
2022-08-17T18:42:25.793Z,26.42
2022-08-17T18:44:55.359Z,27.70
2022-08-17T18:47:24.028Z,27.08
2022-08-17T18:50:15.708Z,25.73
2022-08-17T18:52:42.468Z,25.73
2022-08-17T18:55:12.584Z,23.83
2022-08-17T18:57:45.679Z,25.45
2022-08-17T19:00:19.305Z,24.35
2022-08-17T19:02:52.706Z,22.02
2022-08-17T19:05:30.961Z,22.67
2022-08-17T19:08:17.308Z,18.42
2022-08-17T19:10:47.321Z,19.88
2022-08-17T19:13:24.527Z,18.00
2022-08-17T19:16:13.897Z,17.08
2022-08-17T19:18:47.288Z,18.42
2022-08-17T19:21:22.945Z,20.95
2022-08-17T19:23:55.498Z,22.50
2022-08-17T19:26:50.556Z,22.92
2022-08-17T19:29:23.968Z,25.75
2022-08-17T19:31:51.168Z,27.98
2022-08-17T19:34:29.877Z,29.90
2022-08-17T19:37:06.835Z,29.50
2022-08-17T19:39:50.713Z,28.08
2022-08-17T19:42:53.185Z,27.30
2022-08-17T19:48:39.220Z,24.38
2022-08-17T19:51:15.292Z,28.05
2022-08-17T19:54:05.791Z,26.83
2022-08-17T19:56:41.971Z,28.40
2022-08-17T19:59:49.357Z,27.48
2022-08-17T20:02:25.121Z,26.50
2022-08-17T20:04:54.753Z,28.67
2022-08-17T20:07:37.820Z,27.40
2022-08-17T20:10:08.807Z,27.98
2022-08-17T20:12:38.229Z,27.25
2022-08-17T20:15:08.244Z,27.48
2022-08-17T20:17:38.292Z,25.67
2022-08-17T20:20:31.903Z,26.77
2022-08-17T20:23:24.835Z,26.70
2022-08-17T20:26:19.449Z,24.83
2022-08-17T20:29:15.429Z,23.90
2022-08-17T20:31:56.591Z,23.17
2022-08-17T20:34:34.852Z,23.67
2022-08-17T20:37:24.602Z,23.42
2022-08-17T20:39:52.428Z,23.20
2022-08-17T20:42:22.050Z,23.63
2022-08-17T20:44:57.995Z,22.95
2022-08-17T20:48:00.850Z,22.63
2022-08-17T20:50:43.751Z,22.70
2022-08-17T20:53:15.069Z,22.80
2022-08-17T20:55:51.309Z,23.20
2022-08-17T20:58:24.619Z,21.88
2022-08-17T21:00:57.699Z,23.00
2022-08-17T21:03:24.941Z,22.50
2022-08-17T21:06:16.927Z,23.42
2022-08-17T21:08:58.699Z,21.08
2022-08-17T21:12:03.351Z,22.90
2022-08-17T21:14:37.965Z,21.70
2022-08-17T21:17:35.228Z,22.40
2022-08-17T21:20:27.620Z,21.80
2022-08-17T21:23:26.395Z,21.90
2022-08-17T21:26:11.743Z,21.73
2022-08-17T21:29:00.772Z,21.10
2022-08-17T21:31:34.409Z,20.60
2022-08-17T21:34:16.736Z,19.70
2022-08-17T21:36:45.454Z,21.60
2022-08-17T21:39:15.902Z,19.88
2022-08-17T21:41:53.642Z,21.05
2022-08-17T21:44:30.582Z,20.00
2022-08-17T21:47:20.196Z,19.27
2022-08-17T21:49:47.232Z,18.42
2022-08-17T21:52:17.529Z,18.85
2022-08-17T21:54:57.647Z,19.02
2022-08-17T21:57:28.789Z,18.25
2022-08-17T21:59:59.816Z,17.43
2022-08-17T22:02:37.485Z,15.45
2022-08-17T22:05:11.107Z,16.35
2022-08-17T22:07:42.039Z,16.05
2022-08-17T22:10:33.662Z,15.55
2022-08-17T22:13:19.682Z,16.02
2022-08-17T22:16:28.010Z,15.40
2022-08-17T22:18:58.620Z,15.38
2022-08-17T22:21:25.752Z,15.13
2022-08-17T22:24:21.644Z,15.52
2022-08-17T22:27:03.689Z,15.43
2022-08-17T22:29:45.643Z,14.60
2022-08-17T22:32:31.580Z,14.48
2022-08-17T22:35:16.952Z,14.82
2022-08-17T22:37:43.683Z,14.48
2022-08-17T22:40:11.073Z,14.32
2022-08-17T22:42:49.607Z,14.23
2022-08-17T22:45:16.421Z,13.80
2022-08-17T22:47:48.683Z,14.10
2022-08-17T22:50:27.536Z,14.93
2022-08-17T22:53:31.499Z,14.35
2022-08-17T22:56:17.052Z,14.10
2022-08-17T22:59:14.353Z,14.43
2022-08-17T23:01:42.915Z,14.93
2022-08-17T23:04:12.799Z,13.90
2022-08-17T23:06:44.382Z,14.45
2022-08-17T23:09:10.983Z,13.43
2022-08-17T23:11:49.970Z,13.85
2022-08-17T23:14:19.729Z,13.25
2022-08-17T23:16:47.413Z,13.40
2022-08-17T23:19:16.996Z,13.68
2022-08-17T23:21:47.382Z,12.90
2022-08-17T23:24:22.442Z,13.07
2022-08-17T23:26:49.321Z,13.18
2022-08-17T23:29:16.390Z,13.40
2022-08-17T23:31:43.119Z,13.85
2022-08-17T23:34:13.403Z,13.52
2022-08-17T23:36:40.154Z,13.52
2022-08-17T23:39:07.376Z,14.38
2022-08-17T23:41:37.764Z,13.48
2022-08-17T23:44:06.257Z,13.18
2022-08-17T23:46:33.233Z,13.23
2022-08-17T23:49:00.348Z,13.05
2022-08-17T23:51:34.462Z,13.15
2022-08-17T23:54:29.260Z,12.75
2022-08-17T23:56:56.131Z,12.60
2022-08-17T23:59:23.699Z,13.93
